Time;durP1;ratioP1;P1;durP2;ratioP2;P2;SDS_P1;SDS_P2;PMS_P1;PMS_P2;Temp;Humidity;BMP_temperature;BMP_pressure;BME280_temperature;BME280_humidity;BME280_pressure;Samples;Min_cycle;Max_cycle;Signal;HPM_P1;HPM_P2
2021/07/14 00:00:10;;;;;;;11.70;8.57;;;26.10;87.30;;;;;;6322191;28;20236;-63
2021/07/14 00:03:14;;;;;;;8.37;7.53;;;26.00;87.50;;;;;;6322809;28;20884;-64
2021/07/14 00:06:18;;;;;;;9.67;8.43;;;26.00;87.80;;;;;;6323137;28;20244;-63
2021/07/14 00:09:22;;;;;;;8.90;8.20;;;26.00;88.80;;;;;;6323234;28;20256;-65
2021/07/14 00:12:27;;;;;;;10.37;8.40;;;25.80;89.50;;;;;;6322986;28;20225;-62
2021/07/14 00:22:14;;;;;;;8.90;7.73;;;25.70;90.20;;;;;;6319391;28;20219;-63
2021/07/14 00:25:18;;;;;;;17.83;8.93;;;25.70;90.20;;;;;;6288152;28;20230;-63
2021/07/14 00:28:21;;;;;;;8.60;7.83;;;25.70;90.40;;;;;;6299795;28;20315;-64
2021/07/14 00:31:24;;;;;;;9.50;8.50;;;25.70;90.60;;;;;;6321465;28;20240;-63
2021/07/14 00:34:27;;;;;;;10.40;9.07;;;25.70;90.80;;;;;;6327540;28;20254;-64
2021/07/14 00:37:32;;;;;;;9.17;8.43;;;25.70;91.00;;;;;;6342437;27;20226;-64
2021/07/14 00:40:35;;;;;;;8.27;7.53;;;25.70;90.90;;;;;;6322605;28;20233;-64
2021/07/14 00:43:39;;;;;;;8.57;7.67;;;25.70;91.00;;;;;;6321998;28;20244;-64
2021/07/14 00:46:46;;;;;;;9.93;8.33;;;25.70;91.10;;;;;;6322111;28;20688;-64
2021/07/14 00:49:50;;;;;;;8.93;8.13;;;25.80;91.30;;;;;;6330405;28;20259;-65
2021/07/14 00:52:55;;;;;;;8.60;7.80;;;25.80;91.50;;;;;;6338772;27;20701;-63
2021/07/14 00:55:58;;;;;;;9.40;8.60;;;25.80;91.50;;;;;;6318041;28;20233;-62
2021/07/14 00:59:02;;;;;;;9.57;8.70;;;25.70;91.50;;;;;;6331253;28;20228;-60
2021/07/14 01:02:05;;;;;;;9.53;7.90;;;25.70;91.80;;;;;;6334096;28;20691;-61
2021/07/14 01:05:13;;;;;;;8.60;7.80;;;25.60;91.90;;;;;;6322278;28;20234;-60
2021/07/14 01:08:27;;;;;;;11.27;8.20;;;25.60;92.00;;;;;;6322177;28;20291;-63
2021/07/14 01:11:34;;;;;;;10.47;8.33;;;25.50;92.00;;;;;;6336952;28;20569;-66
2021/07/14 01:14:44;;;;;;;8.93;8.03;;;25.60;92.40;;;;;;6334316;27;20234;-60
2021/07/14 01:17:51;;;;;;;10.07;9.00;;;25.50;92.80;;;;;;6323103;28;20723;-64
2021/07/14 01:21:01;;;;;;;12.33;10.23;;;25.50;94.20;;;;;;6320941;28;20217;-64
2021/07/14 01:24:13;;;;;;;11.03;9.93;;;25.50;94.10;;;;;;6338503;28;20225;-61
2021/07/14 01:27:20;;;;;;;21.63;11.07;;;25.50;94.20;;;;;;6326122;28;20706;-64
2021/07/14 01:30:26;;;;;;;12.20;9.57;;;25.50;94.30;;;;;;6323618;28;20233;-65
2021/07/14 01:33:32;;;;;;;11.17;9.70;;;25.50;95.80;;;;;;6324213;28;20224;-65
2021/07/14 01:36:38;;;;;;;14.70;10.13;;;25.50;95.70;;;;;;6323770;28;20575;-59
2021/07/14 01:39:44;;;;;;;16.57;10.07;;;25.40;95.80;;;;;;6323099;28;20218;-62
2021/07/14 01:42:54;;;;;;;10.87;9.93;;;25.40;96.30;;;;;;6352237;28;20221;-60
2021/07/14 01:45:58;;;;;;;12.37;9.50;;;25.40;96.40;;;;;;6328018;28;20237;-64
2021/07/14 01:49:06;;;;;;;12.73;10.10;;;25.20;96.40;;;;;;6328537;28;20194;-62
2021/07/14 01:52:12;;;;;;;15.87;10.80;;;25.00;96.70;;;;;;6326586;28;20542;-64
2021/07/14 01:55:17;;;;;;;11.10;9.30;;;24.90;97.30;;;;;;6348703;27;20249;-64
2021/07/14 01:58:24;;;;;;;16.23;9.00;;;25.00;97.20;;;;;;6325916;28;20948;-62
2021/07/14 02:01:30;;;;;;;10.63;8.27;;;25.00;96.90;;;;;;6332634;28;20685;-60
2021/07/14 02:04:34;;;;;;;10.50;8.13;;;24.90;97.00;;;;;;6347889;27;20668;-62
2021/07/14 02:07:38;;;;;;;10.63;7.57;;;24.90;96.60;;;;;;6328648;28;20316;-62
2021/07/14 02:10:42;;;;;;;9.03;8.10;;;24.90;96.40;;;;;;6328845;28;20233;-64
2021/07/14 02:13:47;;;;;;;9.40;7.97;;;25.00;96.60;;;;;;6328842;28;20230;-62
2021/07/14 02:16:51;;;;;;;13.57;8.73;;;25.00;96.60;;;;;;6335874;28;20237;-64
2021/07/14 02:20:00;;;;;;;13.23;8.80;;;24.90;96.70;;;;;;6344672;27;20230;-65
2021/07/14 02:23:06;;;;;;;10.63;7.60;;;24.80;96.80;;;;;;6327900;28;20233;-65
2021/07/14 02:26:09;;;;;;;11.23;8.73;;;24.80;97.00;;;;;;6328181;28;20234;-60
2021/07/14 02:29:13;;;;;;;14.10;9.83;;;24.70;97.50;;;;;;6327331;28;20640;-64
2021/07/14 02:32:20;;;;;;;15.50;9.40;;;24.60;97.90;;;;;;6330008;28;20252;-62
2021/07/14 02:35:23;;;;;;;9.23;7.80;;;24.40;98.20;;;;;;6340407;27;20227;-63
2021/07/14 02:38:31;;;;;;;13.13;9.00;;;24.30;98.50;;;;;;6327787;28;20230;-65
2021/07/14 02:41:41;;;;;;;9.13;7.70;;;24.10;98.40;;;;;;6328051;28;20226;-65
2021/07/14 02:44:46;;;;;;;14.20;8.57;;;24.00;98.60;;;;;;6327466;28;20245;-62
2021/07/14 02:47:50;;;;;;;9.37;7.67;;;23.90;98.50;;;;;;6343621;28;20709;-59
2021/07/14 02:50:55;;;;;;;12.30;8.07;;;23.80;98.90;;;;;;6335870;27;20347;-64
2021/07/14 02:54:04;;;;;;;11.37;7.27;;;23.70;98.90;;;;;;6326265;28;20234;-65
2021/07/14 02:57:13;;;;;;;15.33;7.93;;;23.50;99.70;;;;;;6327272;28;20290;-66
2021/07/14 03:00:19;;;;;;;8.03;6.80;;;23.40;99.90;;;;;;6327036;28;20222;-63
2021/07/14 03:03:23;;;;;;;10.33;6.60;;;23.30;99.90;;;;;;6347857;28;20225;-60
2021/07/14 03:06:32;;;;;;;10.07;6.60;;;23.20;99.90;;;;;;6330704;27;20234;-63
2021/07/14 03:09:40;;;;;;;10.77;7.47;;;23.30;99.90;;;;;;6326703;28;20231;-63
2021/07/14 03:12:45;;;;;;;8.30;6.37;;;23.40;99.90;;;;;;6326585;28;20237;-66
2021/07/14 03:15:50;;;;;;;9.03;6.23;;;23.30;99.90;;;;;;6326454;28;20249;-65
2021/07/14 03:18:55;;;;;;;9.33;5.70;;;23.20;99.90;;;;;;6351959;28;20232;-59
2021/07/14 03:21:59;;;;;;;14.43;6.53;;;23.00;99.90;;;;;;6327321;28;20648;-62
2021/07/14 03:25:03;;;;;;;10.20;5.13;;;22.90;99.90;;;;;;6350641;27;20232;-63
2021/07/14 03:28:07;;;;;;;11.20;4.67;;;22.70;99.90;;;;;;6326343;28;20202;-59
2021/07/14 03:31:13;;;;;;;7.37;5.10;;;22.70;99.90;;;;;;6326386;28;20210;-64
2021/07/14 03:34:17;;;;;;;7.33;4.77;;;22.70;99.90;;;;;;6326601;28;20240;-60
2021/07/14 03:37:21;;;;;;;7.17;4.50;;;22.50;99.90;;;;;;6330076;28;20229;-61
2021/07/14 03:40:24;;;;;;;6.70;4.53;;;22.60;99.90;;;;;;6347564;27;20272;-62
2021/07/14 03:43:30;;;;;;;11.33;4.70;;;22.60;99.90;;;;;;6326349;28;20226;-64
2021/07/14 03:46:35;;;;;;;7.43;4.67;;;22.60;99.90;;;;;;6325813;28;20888;-63
2021/07/14 03:49:39;;;;;;;8.13;4.80;;;22.70;99.90;;;;;;6326317;28;20226;-60
2021/07/14 03:52:45;;;;;;;8.00;4.43;;;22.60;99.90;;;;;;6332868;28;20221;-61
2021/07/14 03:55:49;;;;;;;8.07;4.77;;;22.70;99.90;;;;;;6343726;27;20238;-62
2021/07/14 03:58:53;;;;;;;8.20;4.80;;;22.70;99.90;;;;;;6325680;28;20709;-62
2021/07/14 04:01:59;;;;;;;13.00;5.10;;;22.60;99.90;;;;;;6325957;28;20229;-60
2021/07/14 04:05:03;;;;;;;9.80;4.60;;;22.50;99.90;;;;;;6325695;28;20626;-63
2021/07/14 04:08:07;;;;;;;8.47;4.27;;;22.40;99.90;;;;;;6335865;28;20232;-64
2021/07/14 04:11:12;;;;;;;17.03;4.40;;;22.30;99.90;;;;;;6340314;27;20723;-61
2021/07/14 04:14:15;;;;;;;8.43;4.30;;;22.30;99.90;;;;;;6325194;28;20680;-62
2021/07/14 04:17:20;;;;;;;7.73;4.90;;;22.30;99.90;;;;;;6325146;28;20230;-64
2021/07/14 04:20:23;;;;;;;9.37;4.73;;;22.40;99.90;;;;;;6325527;28;20230;-65
2021/07/14 04:23:26;;;;;;;7.20;4.40;;;22.40;99.90;;;;;;6338173;28;20240;-60
2021/07/14 04:26:30;;;;;;;8.77;4.20;;;22.30;99.90;;;;;;6336933;27;20229;-60
2021/07/14 04:29:33;;;;;;;12.73;5.30;;;22.20;99.90;;;;;;6325221;28;20242;-60
2021/07/14 04:32:37;;;;;;;11.83;5.60;;;22.20;99.90;;;;;;6324785;28;20691;-59
2021/07/14 04:35:40;;;;;;;8.00;5.33;;;22.20;99.90;;;;;;6325045;28;20713;-66
2021/07/14 04:38:44;;;;;;;14.23;5.60;;;22.30;99.90;;;;;;6335309;28;20240;-60
2021/07/14 04:41:47;;;;;;;12.53;5.60;;;22.10;99.90;;;;;;6334270;27;20241;-63
2021/07/14 04:44:51;;;;;;;10.97;5.10;;;22.10;99.90;;;;;;6324336;28;20241;-60
2021/07/14 04:47:56;;;;;;;8.93;4.57;;;21.90;99.90;;;;;;6324824;28;20230;-60
2021/07/14 04:51:00;;;;;;;8.17;4.70;;;21.80;99.90;;;;;;6324580;28;20245;-61
2021/07/14 04:54:03;;;;;;;11.30;5.23;;;21.70;99.90;;;;;;6342474;28;20233;-65
2021/07/14 04:57:07;;;;;;;11.10;5.30;;;21.70;99.90;;;;;;6331412;27;20573;-61
2021/07/14 05:00:11;;;;;;;6.80;4.63;;;21.70;99.90;;;;;;6324062;28;20237;-60
2021/07/14 05:03:15;;;;;;;12.07;5.03;;;21.80;99.90;;;;;;6321659;28;20237;-60
2021/07/14 05:06:19;;;;;;;10.57;4.83;;;21.90;99.90;;;;;;6321496;28;20234;-60
2021/07/14 05:09:23;;;;;;;9.70;4.60;;;21.90;99.90;;;;;;6343116;28;20226;-60
2021/07/14 05:12:26;;;;;;;7.80;4.90;;;22.00;99.90;;;;;;6328265;27;20307;-65
2021/07/14 05:15:29;;;;;;;10.50;4.90;;;22.10;99.90;;;;;;6323408;28;20237;-64
2021/07/14 05:18:34;;;;;;;10.13;5.10;;;22.20;99.90;;;;;;6324096;28;20306;-66
2021/07/14 05:21:37;;;;;;;13.07;4.40;;;22.10;99.90;;;;;;6324194;28;20241;-64
2021/07/14 05:24:40;;;;;;;14.13;4.57;;;22.10;99.90;;;;;;6346942;28;20259;-64
2021/07/14 05:27:43;;;;;;;9.50;4.90;;;21.70;99.90;;;;;;6325646;27;20237;-65
2021/07/14 05:30:47;;;;;;;6.40;5.03;;;21.60;99.90;;;;;;6323804;28;20288;-64
2021/07/14 05:33:51;;;;;;;10.70;4.30;;;21.50;99.90;;;;;;6323838;28;20230;-60
2021/07/14 05:36:56;;;;;;;7.03;4.03;;;21.40;99.90;;;;;;6348756;27;20676;-61
2021/07/14 05:40:00;;;;;;;9.23;5.10;;;21.30;99.90;;;;;;6324042;28;20206;-61
2021/07/14 05:43:03;;;;;;;10.40;4.63;;;21.20;99.90;;;;;;6315092;28;20284;-59
2021/07/14 05:46:07;;;;;;;7.43;3.73;;;21.20;99.90;;;;;;6323521;28;20226;-59
2021/07/14 05:49:11;;;;;;;5.27;4.40;;;21.30;99.90;;;;;;6325684;28;20202;-60
2021/07/14 05:52:15;;;;;;;7.33;4.10;;;21.40;99.90;;;;;;6346106;27;20209;-59
2021/07/14 05:55:18;;;;;;;5.17;3.90;;;21.40;99.90;;;;;;6323807;28;20230;-60
2021/07/14 05:58:21;;;;;;;9.93;4.80;;;21.40;99.90;;;;;;6323759;28;20290;-59
2021/07/14 06:01:24;;;;;;;8.37;4.37;;;21.40;99.90;;;;;;6323835;28;20226;-59
2021/07/14 06:04:29;;;;;;;10.57;4.20;;;21.40;99.90;;;;;;6328049;28;20229;-59
2021/07/14 06:07:32;;;;;;;7.40;4.60;;;21.30;99.90;;;;;;6343379;27;20230;-60
2021/07/14 06:10:36;;;;;;;6.37;3.70;;;21.10;99.90;;;;;;6323388;28;20582;-63
2021/07/14 06:13:39;;;;;;;5.63;3.43;;;21.00;99.90;;;;;;6323701;28;20241;-64
2021/07/14 06:16:42;;;;;;;6.97;4.20;;;21.10;99.90;;;;;;6322917;28;20251;-63
2021/07/14 06:19:47;;;;;;;6.27;4.97;;;21.10;99.90;;;;;;6330011;28;20229;-60
2021/07/14 06:22:50;;;;;;;9.10;4.90;;;21.00;99.90;;;;;;6340510;27;20242;-61
2021/07/14 06:25:55;;;;;;;7.83;4.70;;;21.00;99.90;;;;;;6322615;28;20237;-59
2021/07/14 06:28:58;;;;;;;7.23;4.70;;;21.00;99.90;;;;;;6325870;28;20229;-62
2021/07/14 06:32:01;;;;;;;12.90;5.10;;;21.10;99.90;;;;;;6327363;28;20721;-60
2021/07/14 06:35:08;;;;;;;11.03;5.43;;;21.00;99.90;;;;;;6337125;27;20322;-61
2021/07/14 06:38:11;;;;;;;10.80;4.37;;;21.10;99.90;;;;;;6341826;27;20711;-64
2021/07/14 06:41:18;;;;;;;7.40;4.43;;;21.10;99.90;;;;;;6326970;28;20257;-64
2021/07/14 06:44:21;;;;;;;8.77;5.30;;;21.20;99.90;;;;;;6326839;28;20679;-65
2021/07/14 06:47:24;;;;;;;6.47;4.50;;;21.40;99.90;;;;;;6321542;28;20237;-66
2021/07/14 06:50:29;;;;;;;7.13;4.80;;;21.60;99.90;;;;;;6339320;28;20251;-65
2021/07/14 06:53:32;;;;;;;7.53;4.60;;;21.70;99.90;;;;;;6338421;27;20332;-65
2021/07/14 06:56:36;;;;;;;7.67;4.87;;;21.80;99.90;;;;;;6326840;28;20299;-66
2021/07/14 06:59:39;;;;;;;7.43;4.57;;;21.90;99.90;;;;;;6326974;28;20230;-65
2021/07/14 07:02:43;;;;;;;7.43;4.70;;;22.10;99.90;;;;;;6327141;28;20238;-65
2021/07/14 07:05:48;;;;;;;10.13;5.03;;;22.50;99.90;;;;;;6326712;28;20237;-65
2021/07/14 07:08:51;;;;;;;6.63;4.30;;;22.90;99.90;;;;;;6343149;28;20240;-66
2021/07/14 07:11:55;;;;;;;8.07;4.80;;;23.20;99.90;;;;;;6335798;27;20244;-65
2021/07/14 07:14:58;;;;;;;10.20;5.33;;;23.40;99.90;;;;;;6326770;28;20249;-66
2021/07/14 07:18:01;;;;;;;7.93;4.80;;;23.80;99.90;;;;;;6326690;28;20226;-66
2021/07/14 07:21:26;;;;;;;8.17;5.60;;;25.40;99.90;;;;;;6326528;28;20230;-66
2021/07/14 07:24:30;;;;;;;10.87;4.67;;;27.50;98.70;;;;;;6347960;28;20623;-65
2021/07/14 07:27:36;;;;;;;8.53;4.40;;;29.30;95.00;;;;;;6329784;27;20655;-66
2021/07/14 07:30:39;;;;;;;8.17;4.40;;;30.70;91.90;;;;;;6326429;28;20567;-66
2021/07/14 07:33:42;;;;;;;11.48;4.32;;;32.10;86.20;;;;;;6326512;28;20226;-66
2021/07/14 07:36:47;;;;;;;7.45;4.15;;;32.40;80.90;;;;;;6326735;28;20217;-66
2021/07/14 07:39:51;;;;;;;9.15;4.93;;;31.60;79.70;;;;;;6350582;28;20249;-65
2021/07/14 07:42:55;;;;;;;6.43;4.55;;;30.80;84.50;;;;;;6326271;27;20230;-65
2021/07/14 07:45:58;;;;;;;8.93;4.90;;;30.20;83.80;;;;;;6325823;28;20675;-64
2021/07/14 07:49:03;;;;;;;9.50;4.70;;;29.70;85.60;;;;;;6350680;27;20653;-64
2021/07/14 07:52:08;;;;;;;7.50;4.00;;;29.30;87.90;;;;;;6311636;28;20208;-64
2021/07/14 07:55:15;;;;;;;7.73;4.80;;;30.10;85.80;;;;;;6325719;28;20236;-67
2021/07/14 07:58:19;;;;;;;8.27;4.70;;;30.00;85.00;;;;;;6326106;28;20225;-64
2021/07/14 08:01:23;;;;;;;8.10;4.60;;;29.70;86.70;;;;;;6329714;27;20240;-65
2021/07/14 08:04:26;;;;;;;8.63;4.07;;;29.20;86.30;;;;;;6347054;27;20701;-66
2021/07/14 08:07:31;;;;;;;10.50;4.33;;;29.00;88.50;;;;;;6325704;28;20233;-67
2021/07/14 08:10:35;;;;;;;5.60;4.07;;;29.00;88.70;;;;;;6325749;28;20225;-65
2021/07/14 08:13:38;;;;;;;8.80;4.40;;;29.30;89.20;;;;;;6325655;28;20240;-65
2021/07/14 08:16:41;;;;;;;8.30;4.60;;;29.60;85.20;;;;;;6330941;28;20370;-65
2021/07/14 08:19:45;;;;;;;5.73;3.50;;;30.00;85.20;;;;;;6343717;27;20226;-66
2021/07/14 08:22:50;;;;;;;5.30;3.58;;;30.70;84.30;;;;;;6325387;28;20244;-65
2021/07/14 08:25:54;;;;;;;6.80;4.25;;;31.00;82.00;;;;;;6324554;28;20257;-65
2021/07/14 08:28:57;;;;;;;9.88;4.18;;;31.20;80.00;;;;;;6325018;28;20233;-66
2021/07/14 08:32:00;;;;;;;8.10;4.28;;;31.10;78.60;;;;;;6334166;28;20232;-67
2021/07/14 08:35:04;;;;;;;10.68;4.50;;;30.90;78.20;;;;;;6340508;27;20245;-67
2021/07/14 08:38:09;;;;;;;6.72;3.80;;;30.80;78.40;;;;;;6312788;28;20271;-73
2021/07/14 08:41:15;;;;;;;8.90;4.40;;;30.80;76.70;;;;;;6314464;28;20312;-71
2021/07/14 08:44:18;;;;;;;9.30;4.23;;;30.00;77.60;;;;;;6322307;28;20230;-70
2021/07/14 08:47:22;;;;;;;7.40;4.83;;;29.70;80.40;;;;;;6319960;28;20233;-64
2021/07/14 08:50:27;;;;;;;5.70;4.43;;;29.20;81.40;;;;;;6308997;28;20684;-63
2021/07/14 08:53:33;;;;;;;9.77;4.90;;;28.20;84.60;;;;;;6297227;28;20230;-64
2021/07/14 08:56:36;;;;;;;11.30;5.00;;;27.70;87.20;;;;;;6307486;28;20675;-68
2021/07/14 08:59:40;;;;;;;9.10;4.50;;;28.00;88.70;;;;;;6321210;28;20233;-68
2021/07/14 09:02:43;;;;;;;10.70;5.00;;;28.30;86.50;;;;;;6336589;28;20807;-69
2021/07/14 09:05:47;;;;;;;6.03;4.43;;;28.60;86.10;;;;;;6349074;27;20571;-66
2021/07/14 09:08:51;;;;;;;8.43;4.40;;;28.40;85.60;;;;;;6348718;28;20236;-67
2021/07/14 09:11:57;;;;;;;7.13;5.30;;;28.40;87.10;;;;;;6332387;28;20328;-73
2021/07/14 09:15:05;;;;;;;7.23;5.03;;;28.60;86.90;;;;;;6323031;28;20578;-68
2021/07/14 09:18:12;;;;;;;9.30;5.07;;;29.00;86.20;;;;;;6323846;28;20225;-71
2021/07/14 09:21:17;;;;;;;9.73;5.20;;;29.40;82.70;;;;;;6325098;28;20229;-70
2021/07/14 09:24:41;;;;;;;8.13;4.60;;;29.60;81.70;;;;;;6324058;28;20325;-68
2021/07/14 09:27:56;;;;;;;7.37;5.20;;;29.40;82.60;;;;;;6323588;28;20229;-70
2021/07/14 09:31:00;;;;;;;8.80;5.83;;;29.40;82.60;;;;;;6323540;28;20214;-72
2021/07/14 09:34:04;;;;;;;7.60;5.83;;;29.70;82.40;;;;;;6323202;28;20229;-74
2021/07/14 09:37:07;;;;;;;12.47;5.90;;;30.00;81.60;;;;;;6325370;28;20197;-69
2021/07/14 09:40:16;;;;;;;5.60;5.03;;;30.10;80.60;;;;;;6348861;28;20211;-69
2021/07/14 09:43:21;;;;;;;8.70;5.53;;;30.00;80.40;;;;;;6346158;28;20237;-69
2021/07/14 09:46:26;;;;;;;9.57;5.60;;;30.00;81.90;;;;;;6323449;28;20241;-66
2021/07/14 09:49:36;;;;;;;7.00;5.37;;;29.20;82.00;;;;;;6323534;28;20687;-70
2021/07/14 09:53:00;;;;;;;8.93;4.70;;;29.10;84.20;;;;;;6323595;28;20226;-72
2021/07/14 09:56:12;;;;;;;5.90;4.77;;;29.30;84.70;;;;;;6324118;28;20249;-70
2021/07/14 09:59:16;;;;;;;10.10;5.40;;;29.10;85.50;;;;;;6318577;28;20233;-67
2021/07/14 10:02:20;;;;;;;10.20;6.40;;;29.30;85.30;;;;;;6325022;28;20260;-71
2021/07/14 10:05:27;;;;;;;11.03;4.53;;;28.80;86.40;;;;;;6340033;28;20718;-71
2021/07/14 10:08:31;;;;;;;8.70;6.07;;;29.00;86.20;;;;;;6338579;27;20225;-72
2021/07/14 10:11:36;;;;;;;9.13;5.40;;;28.60;87.90;;;;;;6325375;28;20229;-70
2021/07/14 10:14:39;;;;;;;9.90;5.70;;;29.10;85.30;;;;;;6325696;28;20569;-71
2021/07/14 10:17:44;;;;;;;6.73;5.20;;;29.30;84.30;;;;;;6325733;28;20240;-71
2021/07/14 10:20:48;;;;;;;5.60;5.00;;;29.70;82.60;;;;;;6341887;28;20233;-71
2021/07/14 10:23:51;;;;;;;8.80;5.03;;;29.40;81.30;;;;;;6336558;27;20237;-71
2021/07/14 10:26:56;;;;;;;7.73;5.10;;;28.60;82.70;;;;;;6327881;28;20671;-71
2021/07/14 10:29:59;;;;;;;7.37;4.57;;;28.60;82.90;;;;;;6328020;28;20238;-70
2021/07/14 10:33:06;;;;;;;8.73;5.07;;;28.90;79.20;;;;;;6327928;28;20245;-70
2021/07/14 10:36:14;;;;;;;8.00;4.30;;;29.00;80.70;;;;;;6346145;28;20658;-70
2021/07/14 10:39:18;;;;;;;8.63;4.67;;;29.50;80.30;;;;;;6333111;27;20565;-71
2021/07/14 10:42:23;;;;;;;9.90;5.17;;;29.80;78.20;;;;;;6327812;28;20221;-70
2021/07/14 10:45:26;;;;;;;5.70;4.40;;;29.30;76.70;;;;;;6327438;28;20244;-70
2021/07/14 10:48:29;;;;;;;9.13;5.20;;;29.00;78.40;;;;;;6327503;28;20237;-71
2021/07/14 10:51:34;;;;;;;6.00;5.03;;;29.10;80.70;;;;;;6350008;28;20220;-71
2021/07/14 10:54:38;;;;;;;9.70;5.47;;;29.10;80.20;;;;;;6330990;27;20312;-71
2021/07/14 10:57:42;;;;;;;10.13;5.37;;;28.80;80.70;;;;;;6327121;28;20221;-71
2021/07/14 11:00:47;;;;;;;6.63;4.73;;;28.80;79.60;;;;;;6321968;28;20552;-71
2021/07/14 11:03:50;;;;;;;6.70;4.90;;;28.70;80.10;;;;;;6301491;28;20684;-71
2021/07/14 11:06:55;;;;;;;5.90;5.30;;;28.80;80.20;;;;;;6316481;28;20248;-71
2021/07/14 11:09:59;;;;;;;8.13;5.50;;;28.90;80.50;;;;;;6320212;27;20240;-71
2021/07/14 11:13:31;;;;;;;6.97;5.27;;;28.90;80.20;;;;;;6351590;28;20222;-70
2021/07/14 11:16:36;;;;;;;7.30;4.90;;;28.90;79.90;;;;;;6351792;28;20236;-71
2021/07/14 11:19:48;;;;;;;8.33;5.57;;;28.90;78.90;;;;;;6352355;28;20220;-70
2021/07/14 11:22:55;;;;;;;5.90;4.90;;;29.10;77.70;;;;;;6352113;27;20231;-71
2021/07/14 11:25:59;;;;;;;5.87;5.07;;;29.00;77.90;;;;;;6352220;28;20224;-70
2021/07/14 11:29:22;;;;;;;8.20;5.67;;;29.10;78.40;;;;;;6351456;28;20240;-71
2021/07/14 11:32:55;;;;;;;7.40;5.70;;;28.50;79.90;;;;;;6352242;27;20244;-71
2021/07/14 11:36:02;;;;;;;6.27;4.77;;;28.30;81.50;;;;;;6351485;28;20235;-71
2021/07/14 11:39:05;;;;;;;10.83;5.67;;;28.30;82.50;;;;;;6351676;27;20240;-72
2021/07/14 11:42:17;;;;;;;8.00;6.47;;;28.10;83.00;;;;;;6351459;27;20571;-72
2021/07/14 11:45:36;;;;;;;6.53;4.77;;;27.80;86.50;;;;;;6351355;27;20229;-70
2021/07/14 11:48:41;;;;;;;9.37;5.03;;;27.60;89.10;;;;;;6351293;27;20221;-71
2021/07/14 11:51:44;;;;;;;8.50;5.17;;;27.70;90.10;;;;;;6351252;27;20690;-70
2021/07/14 11:54:47;;;;;;;11.20;5.90;;;27.80;90.60;;;;;;6351022;27;20229;-70
2021/07/14 11:57:51;;;;;;;9.87;5.80;;;27.50;90.50;;;;;;6351012;27;20217;-71
2021/07/14 12:00:56;;;;;;;7.17;4.80;;;27.10;91.40;;;;;;6344341;27;20244;-70
2021/07/14 12:04:09;;;;;;;9.33;6.33;;;27.00;91.80;;;;;;6347519;27;20648;-65
2021/07/14 12:07:15;;;;;;;11.10;6.30;;;26.50;93.50;;;;;;6342844;27;20212;-70
2021/07/14 12:10:19;;;;;;;6.57;5.60;;;26.70;93.30;;;;;;6351702;28;20273;-71
2021/07/14 12:13:24;;;;;;;7.33;5.50;;;27.00;92.90;;;;;;6351666;28;20554;-71
2021/07/14 12:16:30;;;;;;;9.27;6.40;;;27.20;92.60;;;;;;6350647;28;20237;-70
2021/07/14 12:19:35;;;;;;;10.97;5.87;;;27.50;92.30;;;;;;6350307;28;20229;-70
2021/07/14 12:22:38;;;;;;;10.30;5.80;;;27.60;91.70;;;;;;6350311;28;20228;-71
2021/07/14 12:25:41;;;;;;;6.40;5.70;;;27.70;91.50;;;;;;6348539;28;20248;-70
2021/07/14 12:28:45;;;;;;;12.33;6.13;;;27.70;91.20;;;;;;6349723;28;20569;-70
2021/07/14 12:31:49;;;;;;;5.30;4.80;;;27.60;91.40;;;;;;6349840;27;20563;-70
2021/07/14 12:34:53;;;;;;;9.27;5.23;;;27.60;90.30;;;;;;6350277;27;20305;-70
2021/07/14 12:37:58;;;;;;;8.07;5.63;;;27.70;90.60;;;;;;6350054;27;20686;-69
2021/07/14 12:41:02;;;;;;;7.20;5.10;;;27.70;88.80;;;;;;6350435;27;20237;-71
2021/07/14 12:44:06;;;;;;;9.70;5.50;;;27.80;88.80;;;;;;6349546;27;20694;-69
2021/07/14 12:47:17;;;;;;;7.77;5.93;;;27.80;90.20;;;;;;6349560;27;20708;-70
2021/07/14 12:50:22;;;;;;;7.33;5.97;;;27.50;90.20;;;;;;6350071;27;20229;-70
2021/07/14 12:53:25;;;;;;;5.80;5.23;;;27.40;90.40;;;;;;6349990;27;20704;-71
2021/07/14 12:56:29;;;;;;;8.63;5.80;;;27.50;88.60;;;;;;6349996;27;20237;-66
2021/07/14 12:59:32;;;;;;;9.77;5.77;;;27.40;88.20;;;;;;6351962;27;20229;-69
2021/07/14 13:02:44;;;;;;;8.93;5.70;;;27.60;88.50;;;;;;6330938;28;20240;-68
2021/07/14 13:05:48;;;;;;;7.77;6.40;;;27.90;86.40;;;;;;6324505;28;20244;-71
2021/07/14 13:08:52;;;;;;;5.83;5.27;;;28.30;85.10;;;;;;6333183;28;20220;-69
2021/07/14 13:11:56;;;;;;;9.80;6.40;;;28.50;82.60;;;;;;6344341;28;20228;-69
2021/07/14 13:15:00;;;;;;;6.20;4.80;;;28.70;82.00;;;;;;6349319;28;20323;-68
2021/07/14 13:18:06;;;;;;;9.80;5.83;;;29.00;81.40;;;;;;6348933;28;20235;-64
2021/07/14 13:21:19;;;;;;;9.80;5.30;;;29.10;79.50;;;;;;6349577;28;20224;-75
2021/07/14 13:24:29;;;;;;;6.80;4.80;;;28.80;80.80;;;;;;6349230;28;20233;-65
2021/07/14 13:27:37;;;;;;;6.23;5.60;;;28.40;75.60;;;;;;6349289;28;20278;-72
2021/07/14 13:30:46;;;;;;;9.07;6.73;;;28.50;76.20;;;;;;6346196;28;20666;-66
2021/07/14 13:33:58;;;;;;;9.07;6.80;;;28.70;81.70;;;;;;6335532;28;20696;-64
2021/07/14 13:37:03;;;;;;;8.60;6.97;;;29.10;84.20;;;;;;6308597;28;20306;-64
2021/07/14 13:40:26;;;;;;;8.80;6.73;;;29.30;84.10;;;;;;6305102;28;20207;-63
2021/07/14 13:43:39;;;;;;;9.60;6.70;;;29.20;85.00;;;;;;6327159;28;20230;-64
2021/07/14 13:46:46;;;;;;;6.17;5.57;;;28.30;87.40;;;;;;6328978;28;20238;-63
2021/07/14 13:49:51;;;;;;;6.20;5.03;;;28.20;86.80;;;;;;6328811;28;20305;-64
2021/07/14 13:53:00;;;;;;;6.93;5.30;;;28.20;79.70;;;;;;6317004;28;20244;-65
2021/07/14 13:56:05;;;;;;;6.77;5.30;;;28.10;80.70;;;;;;6328072;28;20248;-65
2021/07/14 13:59:23;;;;;;;8.70;5.70;;;27.90;79.50;;;;;;6346606;27;20690;-65
2021/07/14 14:02:29;;;;;;;7.90;5.10;;;27.70;80.40;;;;;;6342271;28;20229;-65
2021/07/14 14:05:33;;;;;;;5.43;4.93;;;27.60;80.20;;;;;;6352983;28;20225;-65
2021/07/14 14:08:37;;;;;;;7.90;5.40;;;27.50;79.60;;;;;;6352921;27;20687;-65
2021/07/14 14:11:40;;;;;;;8.23;4.30;;;27.40;79.40;;;;;;6354024;28;20225;-66
2021/07/14 14:14:43;;;;;;;5.37;4.70;;;27.60;78.90;;;;;;6328387;28;20528;-64
2021/07/14 14:17:48;;;;;;;5.53;4.70;;;27.80;76.50;;;;;;6327874;28;20242;-64
2021/07/14 14:20:53;;;;;;;4.87;4.20;;;27.70;74.70;;;;;;6327548;28;20233;-64
2021/07/14 14:24:00;;;;;;;6.50;5.10;;;27.60;74.00;;;;;;6327829;28;20221;-66
2021/07/14 14:27:05;;;;;;;6.03;5.43;;;27.60;76.70;;;;;;6327452;28;20244;-64
2021/07/14 14:30:10;;;;;;;5.97;5.27;;;27.60;77.30;;;;;;6327481;28;20577;-65
2021/07/14 14:33:13;;;;;;;7.00;5.43;;;27.60;79.20;;;;;;6350877;27;20229;-65
2021/07/14 14:36:18;;;;;;;6.10;5.50;;;27.70;80.20;;;;;;6352204;27;20229;-64
2021/07/14 14:39:22;;;;;;;6.20;5.20;;;27.80;78.90;;;;;;6352166;27;20710;-65
2021/07/14 14:42:26;;;;;;;7.30;6.07;;;28.00;79.50;;;;;;6331956;27;20229;-65
2021/07/14 14:45:29;;;;;;;6.73;4.93;;;28.00;79.00;;;;;;6327765;28;20699;-65
2021/07/14 14:48:35;;;;;;;7.27;5.20;;;27.70;79.30;;;;;;6331453;28;20320;-68
2021/07/14 14:51:39;;;;;;;7.30;5.07;;;27.70;79.70;;;;;;6336772;28;20225;-68
2021/07/14 14:54:43;;;;;;;7.00;4.90;;;27.80;79.50;;;;;;6338203;28;20234;-67
2021/07/14 14:57:47;;;;;;;5.77;5.27;;;27.60;81.00;;;;;;6308729;28;20240;-69
2021/07/14 15:00:50;;;;;;;9.00;5.83;;;27.70;81.20;;;;;;6305492;28;20237;-66
2021/07/14 15:03:54;;;;;;;7.43;5.47;;;27.50;81.80;;;;;;6330286;28;20358;-72
2021/07/14 15:06:58;;;;;;;7.47;5.80;;;27.40;82.60;;;;;;6362116;28;20228;-71
2021/07/14 15:10:02;;;;;;;8.50;5.60;;;27.30;83.80;;;;;;6338014;27;20225;-65
2021/07/14 15:13:05;;;;;;;6.30;5.13;;;27.30;84.90;;;;;;6322602;28;20654;-69
2021/07/14 15:16:09;;;;;;;9.10;5.47;;;27.40;85.30;;;;;;6317136;28;20679;-65
2021/07/14 15:19:16;;;;;;;6.63;5.53;;;27.10;86.90;;;;;;6351925;28;20197;-70
2021/07/14 15:22:20;;;;;;;10.37;6.40;;;27.00;87.40;;;;;;6330453;28;20182;-62
2021/07/14 15:25:36;;;;;;;7.40;6.70;;;27.00;88.00;;;;;;6315380;28;20230;-61
2021/07/14 15:28:41;;;;;;;8.63;5.77;;;26.80;89.90;;;;;;6301629;28;20241;-62
2021/07/14 15:31:44;;;;;;;10.43;6.17;;;26.80;90.30;;;;;;6300951;28;20565;-61
2021/07/14 15:34:48;;;;;;;6.60;5.70;;;27.00;90.00;;;;;;6305750;28;20234;-59
2021/07/14 15:37:52;;;;;;;6.80;6.20;;;27.10;89.90;;;;;;6333030;28;20702;-61
2021/07/14 15:40:56;;;;;;;9.40;5.83;;;26.90;90.00;;;;;;6351877;27;20232;-60
2021/07/14 15:44:00;;;;;;;7.77;5.80;;;26.70;90.30;;;;;;6342185;27;20233;-58
2021/07/14 15:47:03;;;;;;;12.13;7.50;;;26.70;89.80;;;;;;6326096;28;20229;-61
2021/07/14 15:50:09;;;;;;;8.63;6.63;;;26.70;90.40;;;;;;6325719;28;20643;-60
2021/07/14 15:53:14;;;;;;;10.27;5.80;;;26.90;90.40;;;;;;6325772;28;20217;-60
2021/07/14 15:56:17;;;;;;;6.93;5.20;;;27.10;87.30;;;;;;6336386;28;20657;-61
2021/07/14 15:59:20;;;;;;;6.90;5.47;;;27.20;87.60;;;;;;6339527;27;20674;-64
2021/07/14 16:02:23;;;;;;;7.40;5.90;;;27.30;88.10;;;;;;6314645;28;20244;-64
2021/07/14 16:05:27;;;;;;;9.43;6.70;;;27.40;86.90;;;;;;6325134;28;20302;-64